This is the latest recevied weather packets stored in our database for station/object CE3EFJ-10. If no packets are shown the sender has not sent any weather packets the latest 10 day(s).
| Time | Temp. | Humidity | Pressure | Rain* | Wind** | Luminosity | Snow |
|---|---|---|---|---|---|---|---|
| 1787428438 | 23.33° C | 23% | 1020.3 hPa | - | - | - | - |
| 1787427538 | 23.33° C | 23% | 1020.3 hPa | - | - | - | - |
| 1787426638 | 23.89° C | 23% | 1020.3 hPa | - | - | - | - |
| 1787425738 | 23.89° C | 24% | 1020.3 hPa | - | - | - | - |
| 1787424838 | 23.89° C | 22% | 1020.2 hPa | - | - | - | - |
| 1787423938 | 24.44° C | 21% | 1020.3 hPa | - | - | - | - |
| 1787423037 | 25° C | 21% | 1020.4 hPa | - | - | - | - |
| 1787422137 | 24.44° C | 21% | 1020.4 hPa | - | - | - | - |
| 1787421237 | 25° C | 22% | 1020.7 hPa | - | - | - | - |
| 1787420337 | 24.44° C | 21% | 1020.8 hPa | - | - | - | - |
| 1787419437 | 23.89° C | 24% | 1021 hPa | - | - | - | - |
| 1787418537 | 23.33° C | 26% | 1021.2 hPa | - | - | - | - |
| 1787417637 | 22.78° C | 31% | 1021.4 hPa | - | - | - | - |
| 1787416736 | 21.11° C | 30% | 1021.7 hPa | - | - | - | - |
| 1787415836 | 21.11° C | 33% | 1021.9 hPa | - | - | - | - |
| 1787414936 | 20° C | 33% | 1022 hPa | - | - | - | - |
| 1787414036 | 19.44° C | 32% | 1022.3 hPa | - | - | - | - |
| 1787413136 | 18.89° C | 34% | 1022.5 hPa | - | - | - | - |
| 1787412236 | 18.89° C | 34% | 1022.4 hPa | - | - | - | - |
| 1787411336 | 18.89° C | 32% | 1022.5 hPa | - | - | - | - |
| 1787410436 | 18.89° C | 32% | 1022.6 hPa | - | - | - | - |
| 1787409535 | 18.89° C | 28% | 1022.7 hPa | - | - | - | - |
| 1787408635 | 17.78° C | 31% | 1022.7 hPa | - | - | - | - |
| 1787407734 | 17.22° C | 37% | 1022.8 hPa | - | - | - | - |
| 1787372866 | 10° C | 69% | 1024 hPa | - | - | - | - |
* Rain since midnight (hover to see other rain measurements)
** Current wind speed in m/s (hover to see current wind gust speed)